Terminal Aerodrome Forecast
Issued by NWS Binghamton, NY

Home | Current Version | Previous Version | Text Only | Print | Product List | Glossary On
Versions: 1 2 3 4 5 6 7 8 9 10 11 12 13 14 15 16 17 18 19
000
FTUS41 KBGM 252300
TAFBGM
TAF
KBGM 252339Z 2600/2624 30005KT P6SM BKN250
     FM261200 03005KT P6SM -SN OVC050
      TEMPO 2612/2614 1SM -SN OVC015
     FM261400 02006KT 1SM -SN BR OVC012
     FM261600 02006KT 1/2SM SN OVC009=

USA.gov is the U.S. government's official web portal to all federal, state and local government web resources and services.